createdAt,value
2018-07-27T00:00:41.243Z,990.83
2018-07-27T00:01:51.351Z,990.83
2018-07-27T00:03:00.881Z,990.83
2018-07-27T00:04:10.407Z,990.84
2018-07-27T00:05:20.497Z,990.89
2018-07-27T00:06:30.352Z,990.89
2018-07-27T00:07:39.675Z,990.92
2018-07-27T00:08:49.756Z,990.99
2018-07-27T00:09:59.566Z,991
2018-07-27T00:11:09.367Z,991
2018-07-27T00:12:19.459Z,990.98
2018-07-27T00:13:29.566Z,990.97
2018-07-27T00:14:39.354Z,991.03
2018-07-27T00:15:49.136Z,991.02
2018-07-27T00:16:58.656Z,991.03
2018-07-27T00:18:08.453Z,991.06
2018-07-27T00:19:18.583Z,991.05
2018-07-27T00:20:28.384Z,991.09
2018-07-27T00:21:38.167Z,991.1
2018-07-27T00:22:47.963Z,991.09
2018-07-27T00:23:57.506Z,991.07
2018-07-27T00:25:07.352Z,991.11
2018-07-27T00:26:17.147Z,991.11
2018-07-27T00:27:26.946Z,991.13
2018-07-27T00:28:36.740Z,991.15
2018-07-27T00:29:46.800Z,991.14
2018-07-27T00:30:56.370Z,991.15
2018-07-27T00:32:05.908Z,991.16
2018-07-27T00:33:15.165Z,991.14
2018-07-27T00:34:24.991Z,991.15
2018-07-27T00:35:34.521Z,991.2
2018-07-27T00:36:44.097Z,991.17
2018-07-27T00:37:53.904Z,991.19
2018-07-27T00:39:03.976Z,991.22
2018-07-27T00:40:13.815Z,991.23
2018-07-27T00:41:23.903Z,991.22
2018-07-27T00:42:34.029Z,991.23
2018-07-27T00:43:44.097Z,991.18
2018-07-27T00:44:53.887Z,991.21
2018-07-27T00:46:03.412Z,991.2
2018-07-27T00:47:13.481Z,991.24
2018-07-27T00:48:23.326Z,991.22
2018-07-27T00:49:33.410Z,991.25
2018-07-27T00:50:43.522Z,991.23
2018-07-27T00:51:53.307Z,991.21
2018-07-27T00:53:03.115Z,991.23
2018-07-27T00:54:12.419Z,991.23
2018-07-27T00:55:22.216Z,991.24
2018-07-27T00:56:32.294Z,991.29
2018-07-27T00:57:42.079Z,991.26
2018-07-27T00:58:51.857Z,991.26
2018-07-27T01:00:02.125Z,991.23
2018-07-27T01:01:11.928Z,991.22
2018-07-27T01:02:22.004Z,991.26
2018-07-27T01:03:31.545Z,991.28
2018-07-27T01:04:41.618Z,991.31
2018-07-27T01:05:51.739Z,991.27
2018-07-27T01:07:01.531Z,991.28
2018-07-27T01:08:11.336Z,991.31
2018-07-27T01:09:21.389Z,991.29
2018-07-27T01:10:31.180Z,991.27
2018-07-27T01:11:41.298Z,991.25
2018-07-27T01:12:51.091Z,991.24
2018-07-27T01:14:01.156Z,991.25
2018-07-27T01:15:11.233Z,991.27
2018-07-27T01:16:21.031Z,991.23
2018-07-27T01:17:31.158Z,991.29
2018-07-27T01:18:41.230Z,991.25
2018-07-27T01:19:51.311Z,991.3
2018-07-27T01:21:01.385Z,991.28
2018-07-27T01:22:11.192Z,991.27
2018-07-27T01:23:21.060Z,991.31
2018-07-27T01:24:31.113Z,991.31
2018-07-27T01:25:41.168Z,991.36
2018-07-27T01:26:50.705Z,991.38
2018-07-27T01:28:00.775Z,991.33
2018-07-27T01:29:10.351Z,991.35
2018-07-27T01:30:20.422Z,991.38
2018-07-27T01:31:30.221Z,991.35
2018-07-27T01:32:40.295Z,991.37
2018-07-27T01:33:50.104Z,991.35
2018-07-27T01:34:59.964Z,991.34
2018-07-27T01:36:09.765Z,991.35
2018-07-27T01:37:19.547Z,991.3
2018-07-27T01:38:29.613Z,991.37
2018-07-27T01:39:39.717Z,991.36
2018-07-27T01:40:54.612Z,991.39
2018-07-27T01:42:04.422Z,991.35
2018-07-27T01:43:14.492Z,991.41
2018-07-27T01:44:24.028Z,991.41
2018-07-27T01:45:33.840Z,991.41
2018-07-27T01:46:43.407Z,991.41
2018-07-27T01:47:53.184Z,991.43
2018-07-27T01:49:02.990Z,991.46
2018-07-27T01:50:13.067Z,991.52
2018-07-27T01:51:23.142Z,991.51
2018-07-27T01:52:33.335Z,991.49
2018-07-27T01:53:43.148Z,991.48
2018-07-27T01:54:53.212Z,991.46
2018-07-27T01:56:03.011Z,991.48
2018-07-27T01:57:13.081Z,991.41
2018-07-27T01:58:23.190Z,991.46
2018-07-27T01:59:32.982Z,991.44
2018-07-27T02:00:42.777Z,991.4
2018-07-27T02:01:52.574Z,991.42
2018-07-27T02:03:02.111Z,991.48
2018-07-27T02:04:12.257Z,991.58
2018-07-27T02:05:22.335Z,991.58
2018-07-27T02:06:32.396Z,991.65
2018-07-27T02:07:42.472Z,991.63
2018-07-27T02:08:52.265Z,991.68
2018-07-27T02:10:02.127Z,991.71
2018-07-27T02:11:11.920Z,991.69
2018-07-27T02:12:21.446Z,991.7
2018-07-27T02:13:31.538Z,991.74
2018-07-27T02:14:41.601Z,991.74
2018-07-27T02:15:51.503Z,991.77
2018-07-27T02:17:01.047Z,991.79
2018-07-27T02:18:10.841Z,991.84
2018-07-27T02:19:20.913Z,991.87
2018-07-27T02:20:30.427Z,991.88
2018-07-27T02:21:40.567Z,991.89
2018-07-27T02:22:50.390Z,991.89
2018-07-27T02:24:00.456Z,991.91
2018-07-27T02:25:09.981Z,991.91
2018-07-27T02:26:20.092Z,991.93
2018-07-27T02:27:30.209Z,991.93
2018-07-27T02:28:40.301Z,991.96
2018-07-27T02:29:50.107Z,991.93
2018-07-27T02:31:00.212Z,991.94
2018-07-27T02:32:10.293Z,991.93
2018-07-27T02:33:20.423Z,991.98
2018-07-27T02:34:30.230Z,991.99
2018-07-27T02:35:40.032Z,991.99
2018-07-27T02:36:50.102Z,991.99
2018-07-27T02:37:59.921Z,992.02
2018-07-27T02:39:09.799Z,992.09
2018-07-27T02:40:19.893Z,992.03
2018-07-27T02:41:29.444Z,992.06
2018-07-27T02:42:39.236Z,992.07
2018-07-27T02:43:49.059Z,992.03
2018-07-27T02:44:58.648Z,992.03
2018-07-27T02:46:08.444Z,992.02
2018-07-27T02:47:18.250Z,992.01
2018-07-27T02:48:28.327Z,992.03
2018-07-27T02:49:37.611Z,992.04
2018-07-27T02:50:47.203Z,992.02
2018-07-27T02:51:56.489Z,992.05
2018-07-27T02:53:06.044Z,992.05
2018-07-27T02:54:16.128Z,992.08
2018-07-27T02:55:25.399Z,992.09
2018-07-27T02:56:35.511Z,992.08
2018-07-27T02:57:45.617Z,992.1
2018-07-27T02:58:55.697Z,992.07
2018-07-27T03:00:05.748Z,992.06
2018-07-27T03:04:41.426Z,992.12
2018-07-27T03:05:51.240Z,992.14
2018-07-27T03:07:01.361Z,992.16
2018-07-27T03:08:10.889Z,992.12
2018-07-27T03:09:20.727Z,992.17
2018-07-27T03:10:30.820Z,992.2
2018-07-27T03:11:40.909Z,992.21
2018-07-27T03:12:50.980Z,992.18
2018-07-27T03:14:00.785Z,992.17
2018-07-27T03:15:10.907Z,992.15
2018-07-27T03:16:20.996Z,992.15
2018-07-27T03:17:31.075Z,992.16
2018-07-27T03:18:40.869Z,992.17
2018-07-27T03:19:50.946Z,992.17
2018-07-27T03:21:01.064Z,992.18
2018-07-27T03:22:10.877Z,992.17
2018-07-27T03:23:20.955Z,992.23
2018-07-27T03:24:31.021Z,992.24
2018-07-27T03:25:41.105Z,992.26
2018-07-27T03:26:51.221Z,992.24
2018-07-27T03:28:00.500Z,992.25
2018-07-27T03:29:10.594Z,992.24
2018-07-27T03:30:20.693Z,992.27
2018-07-27T03:31:29.965Z,992.29
2018-07-27T03:32:40.097Z,992.26
2018-07-27T03:33:49.888Z,992.29
2018-07-27T03:34:59.943Z,992.35
2018-07-27T03:36:10.008Z,992.34
2018-07-27T03:37:20.094Z,992.31
2018-07-27T03:38:29.934Z,992.31
2018-07-27T03:39:40.028Z,992.32
2018-07-27T03:40:50.104Z,992.36
2018-07-27T03:42:00.210Z,992.39
2018-07-27T03:43:10.607Z,992.33
2018-07-27T03:44:23.215Z,992.34
2018-07-27T03:45:33.027Z,992.36
2018-07-27T03:46:43.080Z,992.35
2018-07-27T03:47:52.879Z,992.33
2018-07-27T03:49:02.965Z,992.4
2018-07-27T03:50:13.060Z,992.47
2018-07-27T03:51:23.119Z,992.47
2018-07-27T03:52:33.184Z,992.46
2018-07-27T03:53:42.969Z,992.45
2018-07-27T03:54:53.039Z,992.49
2018-07-27T03:56:03.168Z,992.46
2018-07-27T03:57:12.959Z,992.48
2018-07-27T03:58:23.019Z,992.47
2018-07-27T03:59:33.088Z,992.46
2018-07-27T04:00:43.151Z,992.44
2018-07-27T04:01:53.265Z,992.48
2018-07-27T04:03:03.324Z,992.45
2018-07-27T04:04:12.860Z,992.5
2018-07-27T04:05:22.943Z,992.55
2018-07-27T04:06:32.726Z,992.5
2018-07-27T04:07:42.568Z,992.5
2018-07-27T04:08:52.369Z,992.49
2018-07-27T04:10:02.431Z,992.48
2018-07-27T04:11:11.702Z,992.46
2018-07-27T04:12:21.484Z,992.47
2018-07-27T04:13:30.796Z,992.44
2018-07-27T04:14:40.591Z,992.46
2018-07-27T04:15:50.773Z,992.49
2018-07-27T04:17:00.853Z,992.52
2018-07-27T04:18:10.656Z,992.54
2018-07-27T04:19:20.799Z,992.54
2018-07-27T04:20:30.616Z,992.55
2018-07-27T04:21:40.682Z,992.63
2018-07-27T04:22:50.756Z,992.61
2018-07-27T04:24:00.563Z,992.64
2018-07-27T04:25:10.708Z,992.67
2018-07-27T04:26:20.770Z,992.67
2018-07-27T04:27:31.112Z,992.67
2018-07-27T04:28:40.909Z,992.67
2018-07-27T04:29:50.981Z,992.66
2018-07-27T04:31:01.108Z,992.69
2018-07-27T04:32:11.201Z,992.68
2018-07-27T04:33:21.280Z,992.68
2018-07-27T04:34:31.410Z,992.68
2018-07-27T04:35:41.280Z,992.69
2018-07-27T04:36:51.445Z,992.67
2018-07-27T04:38:01.282Z,992.68
2018-07-27T04:39:11.369Z,992.69
2018-07-27T04:40:20.912Z,992.74
2018-07-27T04:41:30.972Z,992.7
2018-07-27T04:42:41.092Z,992.69
2018-07-27T04:43:51.273Z,992.71
2018-07-27T04:45:01.362Z,992.73
2018-07-27T04:46:10.890Z,992.73
2018-07-27T04:47:20.969Z,992.73
2018-07-27T04:48:30.827Z,992.71
2018-07-27T04:49:40.891Z,992.72
2018-07-27T04:50:50.973Z,992.71
2018-07-27T04:52:00.765Z,992.72
2018-07-27T04:53:10.830Z,992.74
2018-07-27T04:54:20.946Z,992.71
2018-07-27T04:55:30.740Z,992.7
2018-07-27T04:56:40.436Z,992.71
2018-07-27T04:57:50.568Z,992.7
2018-07-27T04:59:00.637Z,992.74
2018-07-27T05:00:10.497Z,992.74
2018-07-27T05:01:20.294Z,992.78
2018-07-27T05:02:30.358Z,992.74
2018-07-27T05:03:40.426Z,992.74
2018-07-27T05:04:50.506Z,992.76
2018-07-27T05:06:00.621Z,992.77
2018-07-27T05:07:10.158Z,992.79
2018-07-27T05:08:20.238Z,992.83
2018-07-27T05:09:30.050Z,992.84
2018-07-27T05:10:39.592Z,992.87
2018-07-27T05:11:49.471Z,992.89
2018-07-27T05:12:59.912Z,992.9
2018-07-27T05:14:09.722Z,992.93
2018-07-27T05:15:19.789Z,992.95
2018-07-27T05:16:29.860Z,992.89
2018-07-27T05:17:40.006Z,992.91
2018-07-27T05:18:50.120Z,992.9
2018-07-27T05:20:00.209Z,992.96
2018-07-27T05:21:10.014Z,992.95
2018-07-27T05:22:20.096Z,992.97
2018-07-27T05:23:29.960Z,992.94
2018-07-27T05:24:39.790Z,993
2018-07-27T05:25:49.767Z,992.96
2018-07-27T05:26:59.559Z,992.98
2018-07-27T05:28:09.096Z,992.97
2018-07-27T05:29:24.167Z,992.99
2018-07-27T05:30:33.982Z,993.01
2018-07-27T05:31:44.054Z,992.98
2018-07-27T05:32:53.858Z,993.01
2018-07-27T05:34:03.674Z,993.02
2018-07-27T05:35:13.545Z,993.02
2018-07-27T05:36:23.627Z,993.02
2018-07-27T05:37:33.729Z,993.03
2018-07-27T05:38:43.521Z,993.06
2018-07-27T05:39:53.334Z,993.02
2018-07-27T05:41:03.179Z,993.04
2018-07-27T05:42:12.729Z,993.06
2018-07-27T05:43:22.278Z,993.06
2018-07-27T05:44:32.342Z,993.06
2018-07-27T05:45:42.137Z,993.1
2018-07-27T05:46:51.758Z,993.11
2018-07-27T05:48:02.457Z,993.1
2018-07-27T05:49:12.004Z,993.14
2018-07-27T05:50:22.083Z,993.15
2018-07-27T05:51:32.156Z,993.16
2018-07-27T05:52:42.268Z,993.15
2018-07-27T05:53:52.650Z,993.17
2018-07-27T05:55:01.906Z,993.18
2018-07-27T05:56:11.724Z,993.18
2018-07-27T05:57:21.518Z,993.21
2018-07-27T05:58:31.371Z,993.2
2018-07-27T05:59:41.437Z,993.19
2018-07-27T06:00:51.531Z,993.18
2018-07-27T06:02:01.697Z,993.24
2018-07-27T06:03:13.438Z,993.21
2018-07-27T06:04:23.578Z,993.22
2018-07-27T06:05:33.382Z,993.22
2018-07-27T06:06:43.191Z,993.22
2018-07-27T06:07:53.258Z,993.22
2018-07-27T06:09:03.039Z,993.2
2018-07-27T06:10:12.913Z,993.19
2018-07-27T06:11:22.996Z,993.26
2018-07-27T06:12:33.063Z,993.26
2018-07-27T06:13:43.143Z,993.27
2018-07-27T06:14:53.225Z,993.28
2018-07-27T06:16:03.075Z,993.33
2018-07-27T06:17:12.875Z,993.3
2018-07-27T06:18:22.682Z,993.36
2018-07-27T06:19:32.478Z,993.33
2018-07-27T06:20:42.280Z,993.36
2018-07-27T06:21:52.151Z,993.34
2018-07-27T06:23:01.675Z,993.32
2018-07-27T06:24:11.530Z,993.33
2018-07-27T06:25:21.735Z,993.38
2018-07-27T06:26:31.870Z,993.36
2018-07-27T06:27:41.771Z,993.39
2018-07-27T06:28:51.856Z,993.39
2018-07-27T06:30:01.190Z,993.41
2018-07-27T06:31:11.198Z,993.43
2018-07-27T06:32:21.255Z,993.45
2018-07-27T06:33:31.376Z,993.44
2018-07-27T06:34:41.439Z,993.45
2018-07-27T06:35:51.532Z,993.45
2018-07-27T06:37:00.809Z,993.47
2018-07-27T06:38:10.602Z,993.48
2018-07-27T06:39:20.465Z,993.52
2018-07-27T06:40:29.724Z,993.47
2018-07-27T06:41:39.772Z,993.51
2018-07-27T06:42:49.855Z,993.51
2018-07-27T06:43:59.386Z,993.52
2018-07-27T06:45:09.319Z,993.49
2018-07-27T06:46:19.310Z,993.51
2018-07-27T06:47:29.070Z,993.52
2018-07-27T06:48:39.114Z,993.52
2018-07-27T06:49:48.648Z,993.49
2018-07-27T06:50:58.822Z,993.49
2018-07-27T06:52:08.626Z,993.51
2018-07-27T06:53:18.734Z,993.5
2018-07-27T06:54:28.529Z,993.57
2018-07-27T06:55:38.063Z,993.53
2018-07-27T06:56:47.904Z,993.51
2018-07-27T06:57:57.980Z,993.52
2018-07-27T06:59:07.245Z,993.53
2018-07-27T07:00:16.769Z,993.55
2018-07-27T07:01:26.587Z,993.53
2018-07-27T07:02:35.640Z,993.57
2018-07-27T07:03:45.703Z,993.6
2018-07-27T07:04:55.774Z,993.64
2018-07-27T07:06:05.305Z,993.67
2018-07-27T07:07:14.837Z,993.68
2018-07-27T07:08:24.952Z,993.67
2018-07-27T07:09:34.207Z,993.65
2018-07-27T07:10:44.293Z,993.69
2018-07-27T07:11:54.368Z,993.73
2018-07-27T07:13:04.457Z,993.75
2018-07-27T07:14:14.601Z,993.71
2018-07-27T07:15:24.818Z,993.7
2018-07-27T07:16:34.896Z,993.71
2018-07-27T07:17:44.981Z,993.7
2018-07-27T07:18:55.056Z,993.74
2018-07-27T07:20:04.643Z,993.72
2018-07-27T07:21:14.469Z,993.68
2018-07-27T07:22:24.548Z,993.67
2018-07-27T07:23:34.613Z,993.67
2018-07-27T07:24:44.697Z,993.72
2018-07-27T07:25:55.146Z,993.73
2018-07-27T07:27:07.034Z,993.73
2018-07-27T07:28:17.091Z,993.73
2018-07-27T07:29:27.173Z,993.71
2018-07-27T07:30:36.986Z,993.72
2018-07-27T07:31:46.825Z,993.71
2018-07-27T07:32:56.627Z,993.7
2018-07-27T07:34:06.560Z,993.68
2018-07-27T07:35:16.665Z,993.7
2018-07-27T07:36:26.712Z,993.67
2018-07-27T07:37:36.569Z,993.69
2018-07-27T07:38:46.370Z,993.68
2018-07-27T07:39:56.180Z,993.7
2018-07-27T07:41:05.727Z,993.67
2018-07-27T07:42:14.715Z,993.7
2018-07-27T07:43:24.035Z,993.71
2018-07-27T07:44:34.095Z,993.71
2018-07-27T07:45:43.901Z,993.69
2018-07-27T07:46:53.440Z,993.65
2018-07-27T07:48:02.964Z,993.7
2018-07-27T07:49:12.827Z,993.65
2018-07-27T07:50:23.111Z,993.66
2018-07-27T07:51:33.168Z,993.7
2018-07-27T07:52:43.285Z,993.69
2018-07-27T07:53:53.345Z,993.71
2018-07-27T07:55:03.188Z,993.7
2018-07-27T07:56:12.990Z,993.71
2018-07-27T07:57:23.083Z,993.67
2018-07-27T07:58:33.233Z,993.63
2018-07-27T07:59:43.823Z,993.65
2018-07-27T08:00:53.940Z,993.64
2018-07-27T08:02:03.743Z,993.64
2018-07-27T08:03:13.291Z,993.7
2018-07-27T08:04:22.926Z,993.65
2018-07-27T08:05:31.989Z,993.64
2018-07-27T08:06:42.259Z,993.66
2018-07-27T08:07:52.038Z,993.67
2018-07-27T08:09:02.114Z,993.62
2018-07-27T08:10:12.182Z,993.63
2018-07-27T08:11:22.263Z,993.64
2018-07-27T08:12:32.385Z,993.61
2018-07-27T08:13:42.448Z,993.6
2018-07-27T08:14:52.236Z,993.59
2018-07-27T08:16:01.760Z,993.61
2018-07-27T08:17:11.867Z,993.57
2018-07-27T08:18:21.243Z,993.61
2018-07-27T08:19:31.061Z,993.62
2018-07-27T08:20:40.863Z,993.58
2018-07-27T08:21:50.380Z,993.59
2018-07-27T08:23:00.210Z,993.58
2018-07-27T08:24:09.787Z,993.56
2018-07-27T08:25:19.384Z,993.61
2018-07-27T08:26:29.206Z,993.55
2018-07-27T08:27:39.025Z,993.57
2018-07-27T08:28:48.833Z,993.6
2018-07-27T08:29:58.421Z,993.6
2018-07-27T08:31:08.506Z,993.57
2018-07-27T08:32:18.561Z,993.52
2018-07-27T08:33:28.092Z,993.56
2018-07-27T08:34:38.183Z,993.52
2018-07-27T08:35:48.310Z,993.5
2018-07-27T08:36:58.387Z,993.52
2018-07-27T08:38:08.506Z,993.47
2018-07-27T08:39:17.755Z,993.51
2018-07-27T08:40:27.841Z,993.52
2018-07-27T08:41:37.163Z,993.51
2018-07-27T08:42:46.960Z,993.55
2018-07-27T08:43:56.228Z,993.55
2018-07-27T08:45:06.050Z,993.6
2018-07-27T08:46:16.143Z,993.56
2018-07-27T08:47:25.747Z,993.6
2018-07-27T08:48:35.553Z,993.58
2018-07-27T08:49:44.810Z,993.61
2018-07-27T08:50:54.352Z,993.56
2018-07-27T08:52:04.425Z,993.53
2018-07-27T08:53:14.550Z,993.54
2018-07-27T08:54:24.353Z,993.5
2018-07-27T08:55:34.172Z,993.53
2018-07-27T08:56:43.713Z,993.47
2018-07-27T08:57:53.520Z,993.52
2018-07-27T08:59:03.645Z,993.5
2018-07-27T09:00:13.454Z,993.52
2018-07-27T09:01:23.260Z,993.55
2018-07-27T09:02:33.073Z,993.52
2018-07-27T09:03:43.150Z,993.47
2018-07-27T09:04:52.815Z,993.51
2018-07-27T09:06:02.635Z,993.48
2018-07-27T09:07:12.703Z,993.44
2018-07-27T09:08:22.518Z,993.45
2018-07-27T09:09:32.611Z,993.46
2018-07-27T09:10:42.461Z,993.42
2018-07-27T09:11:52.248Z,993.46
2018-07-27T09:13:01.240Z,993.48
2018-07-27T09:14:11.050Z,993.46
2018-07-27T09:15:20.851Z,993.44
2018-07-27T09:16:30.182Z,993.39
2018-07-27T09:17:39.734Z,993.38
2018-07-27T09:18:49.552Z,993.41
2018-07-27T09:19:59.668Z,993.42
2018-07-27T09:21:08.934Z,993.38
2018-07-27T09:22:18.536Z,993.35
2018-07-27T09:23:28.616Z,993.36
2018-07-27T09:24:38.884Z,993.38
2018-07-27T09:25:50.214Z,993.36
2018-07-27T09:26:59.730Z,993.34
2018-07-27T09:28:09.594Z,993.35
2018-07-27T09:29:18.878Z,993.35
2018-07-27T09:30:28.698Z,993.37
2018-07-27T09:31:38.562Z,993.32
2018-07-27T09:32:48.621Z,993.33
2018-07-27T09:33:58.538Z,993.32
2018-07-27T09:35:08.905Z,993.34
2018-07-27T09:36:19.225Z,993.37
2018-07-27T09:37:29.035Z,993.34
2018-07-27T09:38:38.847Z,993.38
2018-07-27T09:39:48.962Z,993.39
2018-07-27T09:40:58.768Z,993.36
2018-07-27T09:42:08.861Z,993.41
2018-07-27T09:43:18.381Z,993.38
2018-07-27T09:44:27.925Z,993.44
2018-07-27T09:45:37.766Z,993.38
2018-07-27T09:46:47.568Z,993.39
2018-07-27T09:47:57.390Z,993.34
2018-07-27T09:49:07.480Z,993.33
2018-07-27T09:50:17.551Z,993.31
2018-07-27T09:51:27.676Z,993.34
2018-07-27T09:52:38.000Z,993.36
2018-07-27T09:53:47.826Z,993.33
2018-07-27T09:54:58.243Z,993.29
2018-07-27T09:56:08.053Z,993.31
2018-07-27T09:57:17.634Z,993.3
2018-07-27T09:58:27.645Z,993.29
2018-07-27T09:59:36.899Z,993.26
2018-07-27T10:00:46.971Z,993.26
2018-07-27T10:01:56.774Z,993.28
2018-07-27T10:03:06.368Z,993.21
2018-07-27T10:04:15.901Z,993.24
2018-07-27T10:05:26.011Z,993.24
2018-07-27T10:06:36.106Z,993.2
2018-07-27T10:07:45.921Z,993.2
2018-07-27T10:08:56.062Z,993.16
2018-07-27T10:10:06.151Z,993.17
2018-07-27T10:11:15.699Z,993.17
2018-07-27T10:12:25.775Z,993.2
2018-07-27T10:13:35.866Z,993.14
2018-07-27T10:14:45.977Z,993.1
2018-07-27T10:15:55.792Z,993.05
2018-07-27T10:17:05.321Z,993.07
2018-07-27T10:18:15.122Z,993.07
2018-07-27T10:19:25.036Z,993.02
2018-07-27T10:20:35.169Z,993.06
2018-07-27T10:21:44.977Z,993.06
2018-07-27T10:22:54.788Z,993.09
2018-07-27T10:24:04.615Z,993.04
2018-07-27T10:25:14.702Z,993.04
2018-07-27T10:26:24.539Z,993.01
2018-07-27T10:27:33.799Z,993
2018-07-27T10:28:43.598Z,993
2018-07-27T10:29:53.125Z,993
2018-07-27T10:31:02.930Z,992.97
2018-07-27T10:32:13.001Z,992.98
2018-07-27T10:33:22.830Z,992.98
2018-07-27T10:34:32.647Z,992.93
2018-07-27T10:35:42.461Z,992.96
2018-07-27T10:36:52.547Z,992.93
2018-07-27T10:38:02.402Z,992.93
2018-07-27T10:39:12.213Z,992.94
2018-07-27T10:40:22.074Z,992.95
2018-07-27T10:41:31.880Z,992.87
2018-07-27T10:42:42.008Z,992.92
2018-07-27T10:43:52.134Z,992.96
2018-07-27T10:45:01.946Z,992.92
2018-07-27T10:46:11.761Z,992.9
2018-07-27T10:47:21.562Z,992.88
2018-07-27T10:48:31.650Z,992.9
2018-07-27T10:49:41.512Z,992.9
2018-07-27T10:50:51.039Z,992.83
2018-07-27T10:52:01.129Z,992.86
2018-07-27T10:53:11.191Z,992.85
2018-07-27T10:54:21.000Z,992.83
2018-07-27T10:55:30.614Z,992.86
2018-07-27T10:56:40.670Z,992.84
2018-07-27T10:57:50.477Z,992.8
2018-07-27T10:59:00.295Z,992.81
2018-07-27T11:00:10.106Z,992.81
2018-07-27T11:01:19.989Z,992.82
2018-07-27T11:02:29.822Z,992.84
2018-07-27T11:03:39.772Z,992.85
2018-07-27T11:04:49.572Z,992.81
2018-07-27T11:05:59.660Z,992.78
2018-07-27T11:07:09.518Z,992.82
2018-07-27T11:08:19.595Z,992.82
2018-07-27T11:09:29.687Z,992.83
2018-07-27T11:10:39.553Z,992.78
2018-07-27T11:11:49.655Z,992.77
2018-07-27T11:12:59.788Z,992.75
2018-07-27T11:14:09.603Z,992.72
2018-07-27T11:15:19.730Z,992.74
2018-07-27T11:16:30.067Z,992.71
2018-07-27T11:17:39.972Z,992.7
2018-07-27T11:18:49.746Z,992.66
2018-07-27T11:19:59.840Z,992.64
2018-07-27T11:21:09.362Z,992.67
2018-07-27T11:22:19.240Z,992.66
2018-07-27T11:23:28.768Z,992.69
2018-07-27T11:24:38.407Z,992.71
2018-07-27T11:25:48.212Z,992.74
2018-07-27T11:26:58.036Z,992.73
2018-07-27T11:28:07.591Z,992.66
2018-07-27T11:29:17.404Z,992.66
2018-07-27T11:30:27.557Z,992.71
2018-07-27T11:31:37.633Z,992.63
2018-07-27T11:32:47.706Z,992.6
2018-07-27T11:33:57.776Z,992.61
2018-07-27T11:35:07.598Z,992.65
2018-07-27T11:36:17.733Z,992.66
2018-07-27T11:37:27.650Z,992.64
2018-07-27T11:38:37.478Z,992.63
2018-07-27T11:39:47.534Z,992.66
2018-07-27T11:40:57.614Z,992.73
2018-07-27T11:42:07.222Z,992.71
2018-07-27T11:43:17.660Z,992.66
2018-07-27T11:44:27.743Z,992.57
2018-07-27T11:45:37.287Z,992.6
2018-07-27T11:46:47.358Z,992.64
2018-07-27T11:47:57.202Z,992.56
2018-07-27T11:49:07.013Z,992.54
2018-07-27T11:50:16.827Z,992.54
2018-07-27T11:51:26.627Z,992.5
2018-07-27T11:52:36.695Z,992.52
2018-07-27T11:53:46.556Z,992.52
2018-07-27T11:54:56.369Z,992.51
2018-07-27T11:56:06.183Z,992.51
2018-07-27T11:57:16.277Z,992.46
2018-07-27T11:58:26.085Z,992.52
2018-07-27T11:59:36.226Z,992.51
2018-07-27T12:00:46.312Z,992.53
2018-07-27T12:01:56.396Z,992.5
2018-07-27T12:03:06.493Z,992.44
2018-07-27T12:04:16.587Z,992.42
2018-07-27T12:05:26.446Z,992.39
2018-07-27T12:06:35.996Z,992.48
2018-07-27T12:07:46.106Z,992.45
2018-07-27T12:08:56.185Z,992.41
2018-07-27T12:10:06.018Z,992.4
2018-07-27T12:11:15.885Z,992.38
2018-07-27T12:12:25.977Z,992.41
2018-07-27T12:13:35.801Z,992.4
2018-07-27T12:14:46.223Z,992.36
2018-07-27T12:15:57.550Z,992.41
2018-07-27T12:17:07.135Z,992.4
2018-07-27T12:18:17.228Z,992.39
2018-07-27T12:19:27.321Z,992.42
2018-07-27T12:20:37.483Z,992.44
2018-07-27T12:21:48.364Z,992.37
2018-07-27T12:22:58.734Z,992.37
2018-07-27T12:24:08.287Z,992.33
2018-07-27T12:25:18.114Z,992.29
2018-07-27T12:26:28.201Z,992.31
2018-07-27T12:27:38.020Z,992.24
2018-07-27T12:28:48.149Z,992.27
2018-07-27T12:29:57.970Z,992.29
2018-07-27T12:31:08.133Z,992.25
2018-07-27T12:32:18.228Z,992.32
2018-07-27T12:33:28.322Z,992.23
2018-07-27T12:34:38.470Z,992.26
2018-07-27T12:35:48.013Z,992.27
2018-07-27T12:36:58.092Z,992.28
2018-07-27T12:38:08.194Z,992.25
2018-07-27T12:39:18.291Z,992.22
2018-07-27T12:40:28.173Z,992.27
2018-07-27T12:41:38.014Z,992.22
2018-07-27T12:42:48.107Z,992.18
2018-07-27T12:43:58.201Z,992.13
2018-07-27T12:45:08.314Z,992.13
2018-07-27T12:46:18.461Z,992.16
2018-07-27T12:47:28.559Z,992.11
2018-07-27T12:48:38.388Z,992.09
2018-07-27T12:49:48.212Z,992.15
2018-07-27T12:50:58.318Z,992.14
2018-07-27T12:52:08.205Z,992.12
2018-07-27T12:53:17.756Z,992.08
2018-07-27T12:54:27.865Z,992.14
2018-07-27T12:55:37.945Z,992.13
2018-07-27T12:56:48.029Z,992.14
2018-07-27T12:57:58.168Z,992.12
2018-07-27T12:59:07.733Z,992.19
2018-07-27T13:00:17.300Z,992.19
2018-07-27T13:01:27.397Z,992.17
2018-07-27T13:02:37.492Z,992.22
2018-07-27T13:03:47.638Z,992.24
2018-07-27T13:04:57.739Z,992.23
2018-07-27T13:06:07.750Z,992.25
2018-07-27T13:07:17.855Z,992.16
2018-07-27T13:08:27.658Z,992.16
2018-07-27T13:09:37.527Z,992.16
2018-07-27T13:10:47.643Z,992.14
2018-07-27T13:11:57.918Z,992.2
2018-07-27T13:13:07.749Z,992.22
2018-07-27T13:14:18.073Z,991.89
2018-07-27T13:15:27.677Z,992.22
2018-07-27T13:16:37.499Z,992.19
2018-07-27T13:17:47.610Z,991.84
2018-07-27T13:18:57.421Z,991.95
2018-07-27T13:20:06.698Z,991.82
2018-07-27T13:21:16.591Z,991.88
2018-07-27T13:22:26.733Z,991.95
2018-07-27T13:23:37.688Z,991.95
2018-07-27T13:27:31.810Z,992.4
2018-07-27T13:28:41.901Z,992.42
2018-07-27T13:29:51.990Z,991.91
2018-07-27T13:31:01.810Z,991.94
2018-07-27T13:32:11.685Z,991.96
2018-07-27T13:33:21.753Z,991.91
2018-07-27T13:34:31.915Z,991.94
2018-07-27T13:35:43.115Z,991.91
2018-07-27T13:36:53.178Z,991.92
2018-07-27T13:38:03.332Z,991.95
2018-07-27T13:39:12.614Z,992.44
2018-07-27T13:40:22.723Z,992.45
2018-07-27T13:41:32.816Z,992.25
2018-07-27T13:42:42.359Z,992.34
2018-07-27T13:43:51.992Z,991.81
2018-07-27T13:45:01.517Z,992.31
2018-07-27T13:46:11.602Z,992.23
2018-07-27T13:47:20.878Z,991.75
2018-07-27T13:48:30.711Z,992.08
2018-07-27T13:49:40.032Z,992.3
2018-07-27T13:50:50.143Z,992.24
2018-07-27T13:51:59.951Z,991.95
2018-07-27T13:53:09.758Z,992.24
2018-07-27T13:54:19.562Z,991.74
2018-07-27T13:55:30.013Z,991.76
2018-07-27T13:56:39.836Z,991.8
2018-07-27T13:57:49.930Z,991.79
2018-07-27T13:59:00.030Z,991.79
2018-07-27T14:00:09.839Z,991.81
2018-07-27T14:01:19.998Z,991.77
2018-07-27T14:02:29.808Z,992.24
2018-07-27T14:03:39.892Z,991.72
2018-07-27T14:04:49.162Z,991.7
2018-07-27T14:05:59.252Z,991.76
2018-07-27T14:07:09.122Z,992.3
2018-07-27T14:08:18.926Z,992.23
2018-07-27T14:09:29.008Z,991.79
2018-07-27T14:10:39.091Z,991.72
2018-07-27T14:11:48.379Z,991.73
2018-07-27T14:12:57.973Z,991.75
2018-07-27T14:14:07.785Z,991.71
2018-07-27T14:15:18.050Z,991.72
2018-07-27T14:16:28.128Z,991.72
2018-07-27T14:17:37.669Z,991.71
2018-07-27T14:18:47.784Z,991.71
2018-07-27T14:19:57.604Z,991.65
2018-07-27T14:21:07.423Z,991.7
2018-07-27T14:22:16.972Z,991.65
2018-07-27T14:23:26.787Z,991.64
2018-07-27T14:24:36.627Z,991.62
2018-07-27T14:25:46.711Z,991.91
2018-07-27T14:26:56.839Z,991.6
2018-07-27T14:28:06.118Z,991.62
2018-07-27T14:29:16.314Z,991.6
2018-07-27T14:30:26.149Z,991.61
2018-07-27T14:31:35.928Z,991.63
2018-07-27T14:32:46.012Z,991.65
2018-07-27T14:33:55.835Z,991.64
2018-07-27T14:35:05.646Z,991.58
2018-07-27T14:36:15.510Z,991.61
2018-07-27T14:37:25.338Z,991.57
2018-07-27T14:38:35.146Z,991.51
2018-07-27T14:39:44.968Z,991.51
2018-07-27T14:40:54.789Z,991.53
2018-07-27T14:42:04.666Z,991.52